Tim Klein

Scout - Bayer Leverkusen
20 Feb 2028
Sonntag
Verarbeitung

Persönlichkeit

Anpassungsfähigkeit (19) Ehrgeiz (12) Kontroverse (1) Loyalität (9) Druck (9) Professionalität (7) Fairness (3) Temperament (12)

Profil

Trainerstil Demokratisch
Lizenz Kontinentale C
Entschlossenheit 10
Menschenführung 7
Motivation 10
Disziplin 15
Arbeitszufriedenheit
100%
Ermüdung
0%
Rolle Scout
Gehalt 97.3K p/W
Vertrag 14.03.2028

Leistung

Verhalten Gut
Trainingseffektivität
50%
Spielerentwicklung
80%
Verletzungsprävention
75%
Taktische Umsetzung
55%

Letzte Ereignisse

Vertragsverhandlung begonnen jetzt
Vertragsverhandlung begonnen jetzt
Vertragsverhandlung begonnen jetzt
Vertragsverhandlung begonnen jetzt
Vertragsverhandlung begonnen 7T her
Vertragsverhandlung begonnen 7T her
Vertragsverhandlung begonnen 7T her
Vertragsverhandlung begonnen 7T her

Aktuell beobachtet

84
Spieler Verein Status Fähigkeit Vertrauen Beobachtet Zuletzt beobachtet Letzte Stimme
Daniel Banjaqui Benfica Aktiv 120 / 128 40% 2 28.01.2028 -
Eduardo Fernandes Benfica Aktiv 122 / 123 40% 2 28.01.2028 -
Finn Jeltsch VfB Stuttgart Aktiv 144 / 145 40% 2 28.01.2028 -
Rayane Bounida Ajax Aktiv 142 / 140 40% 1 28.01.2028 -
Estêvão Manchester City Aktiv 146 / 158 40% 1 28.01.2028 -
Jan Virgili Club Brugge Aktiv 136 / 138 40% 2 25.01.2028 -
Pedro Baltika Aktiv 134 / 144 40% 1 25.01.2028 -
David Martínez Los Angeles Football Club Aktiv 118 / 128 40% 1 21.01.2028 -
Valentino Acuña Newell's Old Boys Aktiv 109 / 126 40% 1 21.01.2028 -
Abubacarr Sedi Kinteh Al-Khaleej Aktiv 125 / 136 40% 2 19.01.2028 -
Jorge Salinas Racing Santander Aktiv 134 / 138 40% 2 19.01.2028 -
Andrej Bačanin Vaduz Aktiv 113 / 126 40% 1 19.01.2028 -
Renato Guimarães Veracruz Aktiv 127 / 128 40% 1 18.01.2028 -
Jeffrey Gouweleeuw FC Augsburg Verloren 139 / 136 83% 1 17.01.2028 Befürworten
Fodé Sylla Sion Aktiv 116 / 131 40% 2 01.01.2028 -
Jorthy Mokio Ajax Aktiv 133 / 141 40% 1 01.01.2028 -
Yan Diomandé Real Madrid Aktiv 154 / 164 40% 1 31.08.2027 -
Leon Grgić Red Bull Salzburg Aktiv 125 / 130 40% 1 31.08.2027 -
Jonas Harder Basel Aktiv 114 / 125 40% 3 30.08.2027 -
Héctor Fort Real Sociedad Aktiv 136 / 141 40% 1 30.08.2027 -
Jorrel Hato Chelsea Aktiv 153 / 158 40% 1 29.08.2027 -
Lucas Bergvall Tottenham Aktiv 150 / 155 40% 1 29.08.2027 -
Mbekezeli Mbokazi Chicago Fire Aktiv 132 / 123 40% 1 28.08.2027 -
Pau Cubarsí Barcelona Aktiv 157 / 171 40% 2 27.08.2027 -
Alexis Fretes Libertad Aktiv 114 / 108 40% 3 26.08.2027 -
Philipp Maybach Austria Wien Aktiv 107 / 119 40% 1 26.08.2027 -
Sebastián Ramírez Deportivo Pasto Aktiv 104 / 119 40% 2 25.08.2027 -
Jobe Bellingham Eintracht Frankfurt Aktiv 145 / 143 40% 1 25.08.2027 -
Tobías Andrada River Plate Aktiv 114 / 121 40% 1 24.08.2027 -
Gustavo Albarracín Alavés Aktiv 113 / 125 40% 3 19.08.2027 -
Alex Tóth Bournemouth Aktiv 127 / 134 40% 6 18.08.2027 -
Andrés Cuenca Como Aktiv 110 / 123 40% 2 18.08.2027 -
Yoni Gomis RC Strasbourg Aktiv 111 / 114 40% 1 14.08.2027 -
Dani Díaz Real Sociedad Aktiv 120 / 119 40% 4 11.08.2027 -
Diogo Guzmán Platense Aktiv 104 / 117 40% 1 11.08.2027 -
Antoñito Cordero Newcastle United Aktiv 122 / 127 40% 1 11.08.2027 -
Valentin Atangana Al-Ahli Verloren 138 / 146 40% 9 10.08.2027 -
Diego León Manchester United Aktiv 117 / 122 40% 4 07.08.2027 -
Facundo Insfrán Al Wahda Aktiv 107 / 126 40% 1 06.08.2027 -
Claudio Echeverri Manchester City Aktiv 132 / 132 40% 2 03.08.2027 -
Roony Bardghji Barcelona Aktiv 138 / 146 40% 1 02.08.2027 -
Bautista Carboni Defensores Unidos Aktiv 114 / 114 40% 1 02.08.2027 -
Ishé Samuels-Smith Chelsea Aktiv 123 / 126 40% 4 31.07.2027 -
Noah Streit CF Montreal Aktiv 105 / 123 40% 3 31.07.2027 -
Juma Bah Manchester City Aktiv 126 / 130 40% 1 31.07.2027 -
Saïmon Bouabré Al-Hilal Aktiv 127 / 134 40% 1 30.07.2027 -
Yusuf Akçiçek Al-Hilal Aktiv 122 / 140 40% 4 26.07.2027 -
Amir Mohammad Razzaghinia Esteghlal Aktiv 109 / 119 40% 2 26.07.2027 -
Tidiam Gomis RB Leipzig Aktiv 125 / 122 40% 1 19.07.2027 -
Eliás Montiel Pachuca Aktiv 134 / 139 40% 1 16.07.2027 -
Rafik el Arguioui Utrecht Aktiv 111 / 120 40% 1 15.07.2027 -
Max Alleyne Manchester City Aktiv 138 / 136 40% 1 15.07.2027 -
Mathys Angély VfL Wolfsburg Aktiv 113 / 121 40% 1 01.07.2027 -
Salvador Blopá Sporting CP Aktiv 116 / 124 40% 1 27.06.2027 -
Miguel Figueiredo Benfica Aktiv 108 / 125 40% 1 25.06.2027 -
Mattia Mannini Juve Stabia Aktiv 114 / 116 40% 1 24.06.2027 -
Ronan Kpakio West Bromwich Albion Aktiv 121 / 131 40% 1 24.06.2027 -
Axel Tape TSG Hoffenheim Aktiv 131 / 131 40% 1 24.06.2027 -
Harouna Djibirin Angers SCO Aktiv 112 / 126 40% 1 23.06.2027 -
Illaijh de Ruijter ADO Den Haag Aktiv 112 / 126 40% 1 23.06.2027 -
Robin Roefs Sunderland Aktiv 149 / 147 40% 2 22.06.2027 -
Frank Feller RB Leipzig Aktiv 118 / 124 40% 1 22.06.2027 -
Jonas Urbig Bayern Munich Aktiv 144 / 145 40% 1 21.06.2027 -
Honest Ahanor Udinese Aktiv 128 / 132 40% 1 20.06.2027 -
Ali Al Kamali Al Ahli Aktiv 122 / 128 40% 1 20.06.2027 -
Emi Ochoa Cruz Azul Aktiv 122 / 118 40% 1 19.06.2027 -
Rome-Jayden Owusu-Oduro AZ Aktiv 140 / 142 40% 1 19.06.2027 -
Guillaume Restes Toulouse FC Aktiv 142 / 143 40% 2 14.06.2027 -
Noah Markmann FC Nordsjaelland Aktiv 122 / 135 40% 1 10.06.2027 -
George Abbott Tottenham Aktiv 115 / 123 40% 2 09.06.2027 -
William Gomes Porto Aktiv 142 / 146 40% 1 08.06.2027 -
Josh Nichols Arsenal Aktiv 112 / 120 40% 1 03.06.2027 -
Chris Rigg Bournemouth Aktiv 129 / 136 40% 2 02.06.2027 -
Kjell Peersman KAA Gent Aktiv 123 / 124 40% 1 02.06.2027 -
Santino Barbi Talleres Aktiv 115 / 115 40% 1 02.06.2027 -
Bobby Clark Derby County Aktiv 120 / 131 40% 2 27.01.2027 -
Matheus Gonçalves Al-Ahli Aktiv 126 / 132 40% 1 27.01.2027 -
Dehmaine Tabibou FC Nantes Aktiv 130 / 130 40% 1 27.01.2027 -
James Trafford Leeds United Aktiv 144 / 142 40% 2 26.01.2027 -
Ottó Hindrich Legia Aktiv 115 / 124 40% 1 24.01.2027 -
Ander Astralaga Betis Aktiv 125 / 132 40% 1 19.01.2027 -
Antoni Milambo Brentford Aktiv 136 / 136 40% 1 27.08.2026 -
Jean-Mattéo Bahoya Eintracht Frankfurt Aktiv 136 / 135 40% 1 27.08.2026 Mehr Infos nötig
Breno Bidon Corinthians Aktiv 125 / 132 40% 1 26.08.2026 -